Time;durP1;ratioP1;P1;durP2;ratioP2;P2;SDS_P1;SDS_P2;PMS_P1;PMS_P2;Temp;Humidity;BMP_temperature;BMP_pressure;BME280_temperature;BME280_humidity;BME280_pressure;Samples;Min_cycle;Max_cycle;Signal;HPM_P1;HPM_P2
2022/04/27 00:02:15;;;;;;;0.60;0.60;;;9.20;99.90;;;;;;5036395;28;20320;-85
2022/04/27 00:04:40;;;;;;;0.60;0.60;;;9.20;99.90;;;;;;5052739;28;20245;-86
2022/04/27 00:07:07;;;;;;;5.20;1.00;;;9.20;99.90;;;;;;5036585;28;20255;-86
2022/04/27 00:09:33;;;;;;;8.63;1.33;;;9.20;99.90;;;;;;5037684;28;20520;-86
2022/04/27 00:12:00;;;;;;;0.73;0.73;;;9.30;99.90;;;;;;5034837;28;20222;-85
2022/04/27 00:14:31;;;;;;;3.13;0.50;;;9.30;99.90;;;;;;5051316;28;20222;-84
2022/04/27 00:16:58;;;;;;;3.03;1.37;;;9.30;99.90;;;;;;5044088;28;20218;-85
2022/04/27 00:19:27;;;;;;;1.87;0.57;;;9.30;99.90;;;;;;5052956;28;20229;-86
2022/04/27 00:21:53;;;;;;;1.17;0.60;;;9.40;99.90;;;;;;5019611;28;20659;-85
2022/04/27 00:24:19;;;;;;;0.90;0.90;;;9.40;99.90;;;;;;5025646;28;20218;-85
2022/04/27 00:26:45;;;;;;;0.60;0.60;;;9.40;99.90;;;;;;5035414;28;20226;-84
2022/04/27 00:29:11;;;;;;;0.63;0.57;;;9.30;99.90;;;;;;5034300;28;20242;-86
2022/04/27 00:31:37;;;;;;;0.57;0.57;;;9.30;99.90;;;;;;5035885;28;20234;-85
2022/04/27 00:34:03;;;;;;;0.67;0.67;;;9.20;99.90;;;;;;5050996;28;20729;-86
2022/04/27 00:36:31;;;;;;;0.57;0.57;;;9.20;99.90;;;;;;5034604;28;20226;-86
2022/04/27 00:39:00;;;;;;;0.60;0.53;;;9.20;99.90;;;;;;5034003;28;20253;-85
2022/04/27 00:41:26;;;;;;;0.57;0.53;;;9.20;99.90;;;;;;5041052;28;20234;-86
2022/04/27 00:43:51;;;;;;;2.00;1.00;;;9.20;99.90;;;;;;5049321;28;20214;-85
2022/04/27 00:46:17;;;;;;;1.13;0.60;;;9.20;99.90;;;;;;5052035;28;20190;-86
2022/04/27 00:48:43;;;;;;;0.70;0.70;;;9.20;99.90;;;;;;5026952;28;20291;-86
2022/04/27 00:51:16;;;;;;;0.70;0.70;;;9.20;99.90;;;;;;5035541;28;20288;-85
2022/04/27 00:53:43;;;;;;;0.43;0.43;;;9.20;99.90;;;;;;5042075;28;20228;-86
2022/04/27 00:56:09;;;;;;;0.67;0.67;;;9.10;99.90;;;;;;5052997;28;20249;-86
2022/04/27 00:58:35;;;;;;;2.03;1.03;;;9.10;99.90;;;;;;5052275;28;20297;-88
2022/04/27 01:01:01;;;;;;;1.30;0.70;;;9.10;99.90;;;;;;5034368;28;20743;-86
2022/04/27 01:03:27;;;;;;;1.40;0.97;;;9.10;99.90;;;;;;5036762;28;20264;-87
2022/04/27 01:05:54;;;;;;;0.60;0.60;;;9.20;99.90;;;;;;5034298;28;20221;-85
2022/04/27 01:08:23;;;;;;;0.63;0.63;;;9.20;99.90;;;;;;5033108;28;20570;-86
2022/04/27 01:10:49;;;;;;;1.23;0.73;;;9.20;99.90;;;;;;5026620;28;20222;-84
2022/04/27 01:13:16;;;;;;;0.30;0.30;;;9.30;99.90;;;;;;5036779;28;20279;-85
2022/04/27 01:15:42;;;;;;;3.67;1.00;;;9.30;99.90;;;;;;5052417;28;20198;-85
2022/04/27 01:18:09;;;;;;;0.60;0.60;;;9.40;99.90;;;;;;5052696;28;20525;-85
2022/04/27 01:20:44;;;;;;;0.73;0.73;;;9.40;99.90;;;;;;5026260;28;20749;-86
2022/04/27 01:23:14;;;;;;;0.83;0.83;;;9.40;99.90;;;;;;5034265;28;20298;-85
2022/04/27 01:25:54;;;;;;;3.43;0.70;;;9.40;99.90;;;;;;5041379;28;20218;-84
2022/04/27 01:28:24;;;;;;;0.70;0.70;;;9.40;99.90;;;;;;5050505;28;20210;-84
2022/04/27 01:31:05;;;;;;;1.97;0.90;;;9.40;99.90;;;;;;5036868;28;20251;-87
2022/04/27 01:33:34;;;;;;;0.70;0.70;;;9.30;99.90;;;;;;5052322;28;20706;-85
2022/04/27 01:36:00;;;;;;;1.10;1.00;;;9.40;99.90;;;;;;5034602;28;20299;-87
2022/04/27 01:38:27;;;;;;;2.50;0.80;;;9.50;99.90;;;;;;5033695;28;20237;-85
2022/04/27 01:40:56;;;;;;;1.17;0.50;;;9.50;99.90;;;;;;5034055;28;20226;-85
2022/04/27 01:43:24;;;;;;;1.00;1.00;;;9.40;99.90;;;;;;5036946;28;20269;-86
2022/04/27 01:45:53;;;;;;;4.90;1.20;;;9.30;99.90;;;;;;5052451;28;20190;-87
2022/04/27 01:48:19;;;;;;;1.30;0.90;;;9.40;99.90;;;;;;5034163;28;20737;-85
2022/04/27 01:50:45;;;;;;;3.10;1.13;;;9.40;99.90;;;;;;5035231;28;20329;-86
2022/04/27 01:55:56;;;;;;;0.60;0.60;;;9.40;99.90;;;;;;5034637;28;20290;-86
2022/04/27 01:58:22;;;;;;;0.73;0.73;;;9.40;99.90;;;;;;5034902;28;20224;-85
2022/04/27 02:00:48;;;;;;;0.60;0.60;;;9.40;99.90;;;;;;5041921;28;20194;-86
2022/04/27 02:03:14;;;;;;;5.00;1.23;;;9.40;99.90;;;;;;5050884;28;20292;-85
2022/04/27 02:05:41;;;;;;;0.80;0.73;;;9.40;99.90;;;;;;5034366;28;20222;-85
2022/04/27 02:08:07;;;;;;;0.60;0.60;;;9.40;99.90;;;;;;5041909;28;20241;-86
2022/04/27 02:10:34;;;;;;;1.33;1.10;;;9.40;99.90;;;;;;5036064;28;20221;-85
2022/04/27 02:13:05;;;;;;;3.57;1.20;;;9.40;99.90;;;;;;5035834;28;20198;-84
2022/04/27 02:15:32;;;;;;;1.50;1.20;;;9.30;99.90;;;;;;5034542;28;20580;-85
2022/04/27 02:17:58;;;;;;;1.50;0.90;;;9.40;99.90;;;;;;5035227;28;20657;-87
2022/04/27 02:20:24;;;;;;;0.53;0.53;;;9.40;99.90;;;;;;5050841;28;20231;-86
2022/04/27 02:22:50;;;;;;;0.90;0.90;;;9.30;99.90;;;;;;5023842;28;20210;-85
2022/04/27 02:25:17;;;;;;;0.70;0.70;;;9.30;99.90;;;;;;5041832;28;20190;-85
2022/04/27 02:27:43;;;;;;;0.93;0.93;;;9.30;99.90;;;;;;5032194;28;20301;-84
2022/04/27 02:30:10;;;;;;;2.30;1.07;;;9.30;99.90;;;;;;5034156;28;20340;-86
2022/04/27 02:32:37;;;;;;;2.13;0.70;;;9.30;99.90;;;;;;5033839;28;20229;-88
2022/04/27 02:35:05;;;;;;;1.70;1.30;;;9.30;99.90;;;;;;5034797;28;20206;-88
2022/04/27 02:37:30;;;;;;;1.00;0.87;;;9.30;99.90;;;;;;5035019;28;20282;-85
2022/04/27 02:39:58;;;;;;;0.80;0.80;;;9.20;99.90;;;;;;5033131;28;20277;-85
2022/04/27 02:42:24;;;;;;;1.23;0.80;;;9.20;99.90;;;;;;5031889;28;20209;-84
2022/04/27 02:44:49;;;;;;;0.93;0.40;;;9.20;99.90;;;;;;5040962;28;21109;-85
2022/04/27 02:47:15;;;;;;;1.07;0.90;;;9.20;99.90;;;;;;5025809;28;20566;-86
2022/04/27 02:52:25;;;;;;;1.43;1.10;;;9.10;99.90;;;;;;5049800;28;20194;-85
2022/04/27 02:54:51;;;;;;;5.23;0.97;;;9.20;99.90;;;;;;5037143;28;20241;-88
2022/04/27 02:57:17;;;;;;;2.23;1.43;;;9.10;99.90;;;;;;5038752;28;20226;-84
2022/04/27 02:59:43;;;;;;;0.70;0.70;;;9.20;99.90;;;;;;5053212;28;20222;-85
2022/04/27 03:02:09;;;;;;;2.13;0.70;;;9.20;99.90;;;;;;5036729;28;20225;-85
2022/04/27 03:04:34;;;;;;;8.93;1.53;;;9.20;99.90;;;;;;5054409;28;20222;-84
2022/04/27 03:07:00;;;;;;;0.87;0.63;;;9.20;99.90;;;;;;5053961;28;20202;-85
2022/04/27 03:09:26;;;;;;;0.60;0.60;;;9.20;99.90;;;;;;5037307;28;20683;-85
2022/04/27 03:11:53;;;;;;;0.97;0.83;;;9.20;99.90;;;;;;5039031;28;20304;-88
2022/04/27 03:14:19;;;;;;;6.87;1.27;;;9.20;99.90;;;;;;5037573;28;20245;-85
2022/04/27 03:16:45;;;;;;;8.70;0.83;;;9.30;99.90;;;;;;5052464;28;20221;-85
2022/04/27 03:19:11;;;;;;;3.20;1.27;;;9.30;99.90;;;;;;5034750;28;20648;-87
2022/04/27 03:21:37;;;;;;;0.73;0.70;;;9.30;99.90;;;;;;5038249;28;20190;-84
2022/04/27 03:24:03;;;;;;;2.37;1.10;;;9.30;99.90;;;;;;5048351;28;20649;-85
2022/04/27 03:26:29;;;;;;;1.67;0.90;;;9.30;99.90;;;;;;5044989;28;20606;-86
2022/04/27 03:28:55;;;;;;;0.47;0.47;;;9.30;99.90;;;;;;5043455;28;20250;-85
2022/04/27 03:31:21;;;;;;;3.13;0.73;;;9.30;99.90;;;;;;5036266;28;20992;-88
2022/04/27 03:33:47;;;;;;;1.57;0.87;;;9.40;99.90;;;;;;5027881;28;20195;-85
2022/04/27 03:36:12;;;;;;;1.47;1.33;;;9.40;99.90;;;;;;5037357;28;20226;-85
2022/04/27 03:38:39;;;;;;;2.10;1.10;;;9.40;99.90;;;;;;5053643;28;20229;-86
2022/04/27 03:41:05;;;;;;;0.47;0.47;;;9.40;99.90;;;;;;5034767;28;20226;-85
2022/04/27 03:43:31;;;;;;;0.80;0.80;;;9.30;99.90;;;;;;5027496;28;20363;-85
2022/04/27 03:45:57;;;;;;;1.10;1.10;;;9.40;99.90;;;;;;5032982;28;20199;-85
2022/04/27 03:48:23;;;;;;;0.57;0.57;;;9.30;99.90;;;;;;5024062;28;20250;-85
2022/04/27 03:50:48;;;;;;;1.40;0.80;;;9.40;99.90;;;;;;5025001;28;20788;-88
2022/04/27 03:53:14;;;;;;;4.33;0.90;;;9.30;99.90;;;;;;5050044;28;20303;-84
2022/04/27 03:55:40;;;;;;;0.53;0.53;;;9.30;99.90;;;;;;5026752;28;20586;-88
2022/04/27 03:58:06;;;;;;;1.53;1.37;;;9.30;99.90;;;;;;5036841;28;20216;-84
2022/04/27 04:00:32;;;;;;;1.07;0.67;;;9.20;99.90;;;;;;5033888;28;20213;-86
2022/04/27 04:03:00;;;;;;;3.23;1.77;;;9.20;99.90;;;;;;5025878;28;20310;-87
2022/04/27 04:05:26;;;;;;;1.00;1.00;;;9.20;99.90;;;;;;5035722;28;20301;-86
2022/04/27 04:07:52;;;;;;;1.30;0.93;;;9.20;99.90;;;;;;5027495;28;20222;-84
2022/04/27 04:10:18;;;;;;;5.40;0.73;;;9.30;99.90;;;;;;5035948;28;20673;-85
2022/04/27 04:12:45;;;;;;;0.77;0.77;;;9.20;99.90;;;;;;5052950;28;20189;-84
2022/04/27 04:15:11;;;;;;;1.60;1.50;;;9.20;99.90;;;;;;5042982;28;20348;-87
2022/04/27 04:17:37;;;;;;;1.40;0.90;;;9.20;99.90;;;;;;5034819;28;20225;-86
2022/04/27 04:20:04;;;;;;;0.70;0.70;;;9.10;99.90;;;;;;5033319;28;20221;-84
2022/04/27 04:22:29;;;;;;;0.93;0.90;;;9.20;99.90;;;;;;5034729;28;20203;-85
2022/04/27 04:30:23;;;;;;;2.80;1.37;;;9.20;99.90;;;;;;5035774;28;20588;-87
2022/04/27 04:32:49;;;;;;;3.40;1.73;;;9.10;99.90;;;;;;5027244;28;20732;-84
2022/04/27 04:35:15;;;;;;;2.90;1.27;;;9.20;99.90;;;;;;5026419;28;20218;-86
2022/04/27 04:37:40;;;;;;;4.97;1.10;;;9.20;99.90;;;;;;5027656;28;20219;-85
2022/04/27 04:40:07;;;;;;;7.77;2.50;;;9.20;99.90;;;;;;5035048;28;20710;-84
2022/04/27 04:42:35;;;;;;;1.37;1.00;;;9.30;99.90;;;;;;5042667;28;20269;-84
2022/04/27 04:45:01;;;;;;;6.47;2.13;;;9.30;99.90;;;;;;5034015;28;20228;-86
2022/04/27 04:47:27;;;;;;;4.87;2.43;;;9.30;99.90;;;;;;5034538;28;20248;-87
2022/04/27 04:49:53;;;;;;;1.80;1.00;;;9.30;99.90;;;;;;5035285;28;20703;-85
2022/04/27 04:52:19;;;;;;;3.03;1.03;;;9.30;99.90;;;;;;5051729;28;20205;-85
2022/04/27 04:54:44;;;;;;;4.13;1.47;;;9.40;99.90;;;;;;5026135;28;20187;-85
2022/04/27 04:57:10;;;;;;;2.50;1.20;;;9.40;99.90;;;;;;5026933;28;21333;-85
2022/04/27 04:59:36;;;;;;;6.03;2.10;;;9.40;99.90;;;;;;5042506;28;20237;-85
2022/04/27 05:02:02;;;;;;;0.93;0.80;;;9.40;99.90;;;;;;5031492;28;20214;-86
2022/04/27 05:04:28;;;;;;;9.83;1.30;;;9.50;99.90;;;;;;5034525;28;20275;-84
2022/04/27 05:06:53;;;;;;;5.30;1.53;;;9.50;99.90;;;;;;5027383;28;20304;-84
2022/04/27 05:09:19;;;;;;;3.70;1.90;;;9.50;99.90;;;;;;5035988;28;20678;-86
2022/04/27 05:11:45;;;;;;;1.87;1.60;;;9.50;99.90;;;;;;5034464;28;20230;-85
2022/04/27 05:14:10;;;;;;;5.73;1.10;;;9.60;99.90;;;;;;5025680;28;20218;-84
2022/04/27 05:16:36;;;;;;;5.83;1.90;;;9.50;99.90;;;;;;5049181;28;20832;-85
2022/04/27 05:19:03;;;;;;;7.37;1.20;;;9.60;99.90;;;;;;5026521;28;20206;-87
2022/04/27 05:21:29;;;;;;;2.50;1.47;;;9.60;99.90;;;;;;5033509;28;20224;-86
2022/04/27 05:23:55;;;;;;;1.70;1.17;;;9.50;99.90;;;;;;5034480;28;20245;-85
2022/04/27 05:26:21;;;;;;;1.53;1.00;;;9.40;99.90;;;;;;5050517;28;20590;-86
2022/04/27 05:34:16;;;;;;;1.50;1.40;;;9.20;99.90;;;;;;5046703;28;20186;-86
2022/04/27 05:36:42;;;;;;;3.03;1.70;;;9.20;99.90;;;;;;5025503;28;20707;-85
2022/04/27 05:39:07;;;;;;;1.07;1.07;;;9.20;99.90;;;;;;5035277;28;20226;-87
2022/04/27 05:41:34;;;;;;;1.47;1.10;;;9.20;99.90;;;;;;5032857;28;20222;-86
2022/04/27 05:44:03;;;;;;;6.27;1.70;;;9.20;99.90;;;;;;5033465;28;20211;-86
2022/04/27 05:46:29;;;;;;;2.77;1.67;;;9.20;99.90;;;;;;5048740;28;20202;-86
2022/04/27 05:48:55;;;;;;;6.27;0.90;;;9.20;99.90;;;;;;5033135;28;20249;-86
2022/04/27 05:51:21;;;;;;;1.70;1.53;;;9.20;99.90;;;;;;5047358;28;20717;-87
2022/04/27 05:53:46;;;;;;;3.60;0.97;;;9.20;99.90;;;;;;5030200;28;21307;-86
2022/04/27 05:56:12;;;;;;;0.77;0.47;;;9.30;99.90;;;;;;5030593;28;20259;-84
2022/04/27 05:58:38;;;;;;;3.43;1.03;;;9.30;99.90;;;;;;5033145;28;20960;-84
2022/04/27 06:01:04;;;;;;;1.43;1.13;;;9.30;99.90;;;;;;5033945;28;20198;-85
2022/04/27 06:03:30;;;;;;;2.50;1.13;;;9.40;99.90;;;;;;5032930;28;20244;-84
2022/04/27 06:05:56;;;;;;;3.33;1.20;;;9.40;99.90;;;;;;5044182;28;20705;-84
2022/04/27 06:08:22;;;;;;;4.17;1.20;;;9.40;99.90;;;;;;5044961;28;20244;-80
2022/04/27 06:10:48;;;;;;;5.23;1.23;;;9.40;99.90;;;;;;5029875;28;20540;-81
2022/04/27 06:13:14;;;;;;;6.03;1.83;;;9.30;99.90;;;;;;5030995;28;20209;-82
2022/04/27 06:15:39;;;;;;;2.53;2.33;;;9.40;99.90;;;;;;5032220;28;20187;-81
2022/04/27 06:18:05;;;;;;;3.30;1.30;;;9.40;99.90;;;;;;5027744;28;20683;-80
2022/04/27 06:20:31;;;;;;;12.77;1.10;;;9.40;99.90;;;;;;5021626;28;20522;-80
2022/04/27 06:22:57;;;;;;;2.97;0.60;;;9.50;99.90;;;;;;5021409;28;20226;-84
2022/04/27 06:25:25;;;;;;;4.87;0.87;;;9.60;99.90;;;;;;5030732;28;20190;-80
2022/04/27 06:27:51;;;;;;;3.97;2.60;;;9.50;99.90;;;;;;5033458;28;20300;-81
2022/04/27 06:30:18;;;;;;;3.13;0.90;;;9.50;99.90;;;;;;5052108;28;20623;-81
2022/04/27 06:32:43;;;;;;;3.23;0.73;;;9.60;99.90;;;;;;5036272;28;20230;-81
2022/04/27 06:35:13;;;;;;;2.27;1.43;;;9.60;99.90;;;;;;5032614;28;20220;-81
2022/04/27 06:37:42;;;;;;;5.07;0.90;;;9.60;99.90;;;;;;5053777;28;20253;-81
2022/04/27 06:40:09;;;;;;;2.53;1.10;;;9.60;99.90;;;;;;5053352;28;20768;-80
2022/04/27 06:42:35;;;;;;;3.60;1.67;;;9.60;99.90;;;;;;5017462;28;20717;-82
2022/04/27 06:45:03;;;;;;;1.90;1.13;;;9.60;99.90;;;;;;5026127;28;20222;-81
2022/04/27 06:47:29;;;;;;;7.73;0.97;;;9.60;99.90;;;;;;5036359;28;20222;-81
2022/04/27 06:49:55;;;;;;;4.47;1.33;;;9.60;99.90;;;;;;5033614;28;20758;-83
2022/04/27 06:52:20;;;;;;;1.80;1.33;;;9.60;99.90;;;;;;5034167;28;20217;-81
2022/04/27 06:54:46;;;;;;;5.73;1.37;;;9.70;99.90;;;;;;5033456;28;20584;-83
2022/04/27 06:57:12;;;;;;;1.13;1.00;;;9.70;99.90;;;;;;5034422;28;20220;-81
2022/04/27 06:59:38;;;;;;;2.20;1.80;;;9.70;99.90;;;;;;5033680;28;20257;-81
2022/04/27 07:02:04;;;;;;;0.70;0.70;;;9.60;99.90;;;;;;5051873;28;20761;-81
2022/04/27 07:04:33;;;;;;;3.47;2.13;;;9.70;99.90;;;;;;5034575;28;20186;-82
2022/04/27 07:06:58;;;;;;;3.20;0.93;;;9.70;99.90;;;;;;5034093;28;20229;-80
2022/04/27 07:09:24;;;;;;;1.10;1.07;;;9.80;99.90;;;;;;5045013;28;20636;-81
2022/04/27 07:11:51;;;;;;;1.80;0.90;;;9.90;99.90;;;;;;5019353;28;20737;-84
2022/04/27 07:14:17;;;;;;;2.93;1.20;;;9.70;99.90;;;;;;5038286;28;21027;-82
2022/04/27 07:16:43;;;;;;;0.90;0.90;;;9.80;99.90;;;;;;5035310;28;20209;-83
2022/04/27 07:19:09;;;;;;;3.70;1.60;;;9.80;99.90;;;;;;5047548;28;20186;-90
2022/04/27 07:21:35;;;;;;;2.63;1.30;;;10.00;99.90;;;;;;5034715;28;20223;-88
2022/04/27 07:24:02;;;;;;;2.57;0.97;;;10.10;99.90;;;;;;5032583;28;20231;-88
2022/04/27 07:26:29;;;;;;;6.67;1.10;;;10.10;99.90;;;;;;5035390;28;20279;-87
2022/04/27 07:28:57;;;;;;;3.17;1.37;;;10.20;99.90;;;;;;5026992;28;20242;-86
2022/04/27 07:31:23;;;;;;;0.53;0.53;;;10.40;99.90;;;;;;5035270;28;20198;-84
2022/04/27 07:33:49;;;;;;;2.87;1.73;;;10.30;99.90;;;;;;5022532;28;20191;-83
2022/04/27 07:36:16;;;;;;;5.63;1.37;;;10.40;99.90;;;;;;5048780;28;20296;-84
2022/04/27 07:38:41;;;;;;;2.00;0.70;;;10.50;99.90;;;;;;5042954;28;20222;-84
2022/04/27 07:41:08;;;;;;;1.43;1.40;;;10.50;99.90;;;;;;5030833;28;20232;-85
2022/04/27 07:43:34;;;;;;;2.03;1.30;;;10.60;99.90;;;;;;5032074;28;20233;-84
2022/04/27 07:46:00;;;;;;;1.60;0.97;;;10.60;99.90;;;;;;5030566;28;20208;-85
2022/04/27 07:48:32;;;;;;;1.87;0.90;;;10.60;99.90;;;;;;5022575;28;20978;-85
2022/04/27 07:51:02;;;;;;;0.77;0.77;;;10.70;99.90;;;;;;5048912;28;20690;-85
2022/04/27 07:53:29;;;;;;;2.70;0.80;;;10.90;99.90;;;;;;5030035;28;20231;-85
2022/04/27 07:55:55;;;;;;;1.37;1.20;;;11.00;99.90;;;;;;5036516;28;20749;-85
2022/04/27 07:58:21;;;;;;;5.20;1.37;;;11.10;99.90;;;;;;5030059;28;20190;-86
2022/04/27 08:00:47;;;;;;;2.77;0.90;;;11.20;99.90;;;;;;5031969;28;20670;-84
2022/04/27 08:03:13;;;;;;;1.23;0.90;;;11.10;99.90;;;;;;5029969;28;20710;-85
2022/04/27 08:05:38;;;;;;;6.50;1.60;;;11.10;99.90;;;;;;5043443;28;20225;-85
2022/04/27 08:08:06;;;;;;;3.63;1.17;;;11.40;99.90;;;;;;5032809;28;20226;-84
2022/04/27 08:10:31;;;;;;;5.50;1.63;;;11.60;99.90;;;;;;5029240;28;20237;-85
2022/04/27 08:12:58;;;;;;;1.10;0.83;;;11.70;99.90;;;;;;5031206;28;20577;-87
2022/04/27 08:15:25;;;;;;;3.67;1.33;;;11.70;99.90;;;;;;5029737;28;20276;-85
2022/04/27 08:17:59;;;;;;;1.53;1.07;;;11.80;99.90;;;;;;5031305;28;20581;-85
2022/04/27 08:23:13;;;;;;;3.30;2.17;;;12.10;99.90;;;;;;5034377;28;20316;-84
2022/04/27 08:25:38;;;;;;;7.60;1.50;;;12.40;99.90;;;;;;5031646;28;20228;-84
2022/04/27 08:28:06;;;;;;;13.63;1.13;;;12.60;99.90;;;;;;5032649;28;20588;-87
2022/04/27 08:30:37;;;;;;;4.57;1.13;;;12.70;99.90;;;;;;5034912;28;20230;-85
2022/04/27 08:33:04;;;;;;;2.20;0.90;;;12.70;99.90;;;;;;5035094;28;21018;-87
2022/04/27 08:35:33;;;;;;;1.40;1.10;;;12.20;99.90;;;;;;5046705;28;20229;-86
2022/04/27 08:38:00;;;;;;;3.10;0.97;;;12.30;99.90;;;;;;5039823;28;20245;-86
2022/04/27 08:40:26;;;;;;;1.93;1.50;;;11.90;99.90;;;;;;5031392;28;20282;-87
2022/04/27 08:42:53;;;;;;;2.90;0.90;;;11.80;99.90;;;;;;5035235;28;20945;-85
2022/04/27 08:45:20;;;;;;;1.30;1.00;;;11.90;99.90;;;;;;5033696;28;20234;-87
2022/04/27 08:47:47;;;;;;;4.53;0.97;;;12.40;99.90;;;;;;5022984;28;20297;-86
2022/04/27 08:50:17;;;;;;;2.47;0.90;;;12.40;99.90;;;;;;5027380;28;20631;-86
2022/04/27 08:52:44;;;;;;;6.47;0.97;;;12.00;99.90;;;;;;5051335;28;20224;-93
2022/04/27 08:55:11;;;;;;;5.57;1.13;;;12.00;99.90;;;;;;5036922;28;20190;-88
2022/04/27 08:57:38;;;;;;;1.43;0.50;;;12.30;99.90;;;;;;5023015;28;20578;-92
2022/04/27 09:00:06;;;;;;;1.73;0.83;;;12.60;99.90;;;;;;5026292;28;20219;-89
2022/04/27 09:02:32;;;;;;;2.50;1.37;;;12.40;99.90;;;;;;5032376;28;20634;-85
2022/04/27 09:05:12;;;;;;;1.63;0.67;;;12.80;99.90;;;;;;5031733;28;20695;-89
2022/04/27 09:07:50;;;;;;;2.03;0.63;;;13.30;99.90;;;;;;5036309;28;20232;-89
2022/04/27 09:10:19;;;;;;;5.40;1.50;;;12.70;99.90;;;;;;5032672;28;20213;-91
2022/04/27 09:12:53;;;;;;;2.80;0.90;;;13.20;99.90;;;;;;5026228;28;20265;-90
2022/04/27 09:15:21;;;;;;;6.57;1.70;;;13.50;99.90;;;;;;5038479;28;20331;-88
2022/04/27 09:20:47;;;;;;;8.57;1.93;;;15.40;99.90;;;;;;5028991;28;20308;-89
2022/04/27 09:23:24;;;;;;;3.40;1.17;;;15.80;99.90;;;;;;5029818;28;20221;-86
2022/04/27 09:25:52;;;;;;;1.43;1.13;;;15.40;99.90;;;;;;5030758;28;20305;-88
2022/04/27 09:28:21;;;;;;;1.47;0.80;;;15.50;99.90;;;;;;5031445;28;20265;-86
2022/04/27 09:30:48;;;;;;;0.97;0.90;;;15.10;99.90;;;;;;5032875;28;20186;-87
2022/04/27 09:33:35;;;;;;;1.43;1.00;;;15.00;99.90;;;;;;5032567;28;20811;-85
2022/04/27 09:36:17;;;;;;;1.13;0.70;;;14.60;99.90;;;;;;5029137;28;20232;-88
2022/04/27 09:38:43;;;;;;;2.50;1.03;;;15.10;99.90;;;;;;5035542;28;20297;-87
2022/04/27 09:41:09;;;;;;;5.43;1.63;;;15.20;99.90;;;;;;5034731;28;20217;-89
2022/04/27 09:43:45;;;;;;;2.07;0.70;;;14.90;99.90;;;;;;5032187;28;20221;-86
2022/04/27 09:46:19;;;;;;;2.23;0.90;;;14.50;99.90;;;;;;5033563;28;20200;-84
2022/04/27 09:48:49;;;;;;;4.13;1.03;;;14.20;99.90;;;;;;5048315;28;20201;-84
2022/04/27 09:51:15;;;;;;;3.30;1.10;;;13.90;99.90;;;;;;5046145;28;20226;-84
2022/04/27 09:53:42;;;;;;;3.30;1.10;;;13.30;99.90;;;;;;5032263;28;20225;-85
2022/04/27 09:56:14;;;;;;;4.00;1.40;;;12.60;99.90;;;;;;5031214;28;20214;-85
2022/04/27 09:58:44;;;;;;;1.87;0.67;;;12.10;99.90;;;;;;5034130;28;20229;-87
2022/04/27 10:01:17;;;;;;;0.60;0.60;;;12.10;99.90;;;;;;5035721;28;20187;-86
2022/04/27 10:03:47;;;;;;;1.90;1.00;;;12.20;99.90;;;;;;5051290;28;20222;-87
2022/04/27 10:06:15;;;;;;;1.17;0.50;;;12.50;99.90;;;;;;5032516;28;20222;-87
2022/04/27 10:08:41;;;;;;;0.90;0.77;;;12.50;99.90;;;;;;5032104;28;20238;-79
2022/04/27 10:11:11;;;;;;;5.90;1.07;;;12.70;99.90;;;;;;5047657;28;20229;-79
2022/04/27 10:13:38;;;;;;;1.10;1.10;;;13.10;99.90;;;;;;5036396;28;20219;-84
2022/04/27 10:16:04;;;;;;;0.50;0.40;;;13.70;99.90;;;;;;5047368;28;20248;-82
2022/04/27 10:18:31;;;;;;;2.40;0.83;;;13.80;99.90;;;;;;5031907;28;20279;-89
2022/04/27 10:20:57;;;;;;;1.13;0.90;;;14.00;99.90;;;;;;5024269;28;20219;-87
2022/04/27 10:23:33;;;;;;;2.67;1.03;;;14.30;99.90;;;;;;5041093;28;20229;-88
2022/04/27 10:26:12;;;;;;;3.00;0.97;;;13.60;99.90;;;;;;5051489;28;20222;-84
2022/04/27 10:28:54;;;;;;;1.67;1.43;;;12.90;99.90;;;;;;5031721;28;20237;-86
2022/04/27 10:31:43;;;;;;;1.33;1.23;;;12.80;99.90;;;;;;5032208;28;20182;-87
2022/04/27 10:34:17;;;;;;;1.37;0.97;;;13.10;99.90;;;;;;5030974;28;20197;-88
2022/04/27 10:36:44;;;;;;;1.43;1.10;;;13.40;99.90;;;;;;5050773;28;20222;-87
2022/04/27 10:39:13;;;;;;;2.10;0.67;;;14.20;99.90;;;;;;5032956;28;20280;-86
2022/04/27 10:41:39;;;;;;;4.77;0.90;;;14.70;99.90;;;;;;5050366;28;20218;-87
2022/04/27 10:44:05;;;;;;;2.70;0.87;;;15.50;99.90;;;;;;5035348;28;20631;-87
2022/04/27 10:46:44;;;;;;;3.97;1.00;;;16.50;99.90;;;;;;5044874;28;20219;-88
2022/04/27 10:49:28;;;;;;;4.40;1.17;;;15.10;99.90;;;;;;5032477;28;20315;-88
2022/04/27 10:52:05;;;;;;;3.67;1.10;;;14.20;99.90;;;;;;5034484;28;20684;-86
2022/04/27 10:54:33;;;;;;;4.53;1.13;;;14.30;99.90;;;;;;5034006;28;20218;-89
2022/04/27 10:57:14;;;;;;;0.93;0.73;;;14.90;99.90;;;;;;5050296;28;20297;-87
2022/04/27 10:59:47;;;;;;;2.00;0.80;;;14.60;99.90;;;;;;5040848;28;20252;-88
2022/04/27 11:02:37;;;;;;;1.23;1.13;;;14.70;99.90;;;;;;5050167;28;20210;-87
2022/04/27 11:05:13;;;;;;;0.60;0.60;;;14.40;99.90;;;;;;5033078;28;20225;-86
2022/04/27 11:07:59;;;;;;;1.83;1.10;;;14.20;99.90;;;;;;5031571;28;20372;-85
2022/04/27 11:10:25;;;;;;;3.90;1.73;;;14.50;99.90;;;;;;5033714;28;20276;-86
2022/04/27 11:12:56;;;;;;;0.97;0.73;;;14.40;99.90;;;;;;5040949;28;20733;-86
2022/04/27 11:15:25;;;;;;;1.27;0.60;;;14.00;99.90;;;;;;5036714;28;20230;-86
2022/04/27 11:17:59;;;;;;;0.40;0.40;;;14.20;99.90;;;;;;5037587;28;20224;-87
2022/04/27 11:20:37;;;;;;;1.40;1.30;;;14.40;99.90;;;;;;5031493;28;20580;-85
2022/04/27 11:23:07;;;;;;;2.90;1.23;;;13.60;99.90;;;;;;5033518;28;20213;-86
2022/04/27 11:25:42;;;;;;;2.20;1.33;;;13.00;99.90;;;;;;5036933;28;20301;-87
2022/04/27 11:28:09;;;;;;;0.67;0.67;;;13.30;99.90;;;;;;5037997;28;20213;-83
2022/04/27 11:30:35;;;;;;;0.60;0.60;;;14.00;99.90;;;;;;5034287;28;20219;-86
2022/04/27 11:33:01;;;;;;;1.50;0.73;;;13.90;99.90;;;;;;5034364;28;20714;-83
2022/04/27 11:35:49;;;;;;;2.97;0.90;;;13.90;99.90;;;;;;5034049;28;20225;-86
2022/04/27 11:38:32;;;;;;;4.60;0.83;;;13.70;99.90;;;;;;5033268;28;20249;-84
2022/04/27 11:40:57;;;;;;;2.27;0.80;;;13.20;99.90;;;;;;5032192;28;20229;-85
2022/04/27 11:43:32;;;;;;;1.17;0.80;;;13.30;99.90;;;;;;5025819;28;20199;-87
2022/04/27 11:45:58;;;;;;;4.70;1.23;;;13.30;99.90;;;;;;5037992;28;20624;-85
2022/04/27 11:48:28;;;;;;;2.23;0.87;;;13.30;99.90;;;;;;5052880;28;20225;-84
2022/04/27 11:50:57;;;;;;;2.57;0.83;;;13.70;99.90;;;;;;5049100;28;20226;-86
2022/04/27 11:53:23;;;;;;;3.90;0.90;;;13.90;99.90;;;;;;5033314;28;20219;-86
2022/04/27 11:55:51;;;;;;;0.70;0.60;;;13.70;99.90;;;;;;5035155;28;20275;-87
2022/04/27 11:58:25;;;;;;;1.03;0.77;;;14.10;99.90;;;;;;5033631;28;20191;-86
2022/04/27 12:00:56;;;;;;;1.03;0.83;;;14.50;99.90;;;;;;5032749;28;20977;-85
2022/04/27 12:03:23;;;;;;;1.03;0.77;;;14.20;99.90;;;;;;5032752;28;20213;-87
2022/04/27 12:05:51;;;;;;;1.20;1.13;;;14.30;99.90;;;;;;5033542;28;20218;-87
2022/04/27 12:08:24;;;;;;;2.63;0.87;;;14.60;99.90;;;;;;5035428;28;20233;-86
2022/04/27 12:10:50;;;;;;;1.27;0.90;;;14.50;99.90;;;;;;5034947;28;20689;-85
2022/04/27 12:13:18;;;;;;;1.50;0.93;;;13.90;99.90;;;;;;5017890;28;20190;-88
2022/04/27 12:15:49;;;;;;;0.60;0.60;;;13.50;99.90;;;;;;5052275;28;20233;-85
2022/04/27 12:18:20;;;;;;;4.33;1.43;;;12.90;99.90;;;;;;5037106;28;20788;-88
2022/04/27 12:20:48;;;;;;;2.97;1.77;;;13.20;99.90;;;;;;5038630;28;20218;-87
2022/04/27 12:23:43;;;;;;;2.70;1.40;;;13.10;99.90;;;;;;5036087;28;20298;-88
2022/04/27 12:26:09;;;;;;;3.60;1.00;;;12.90;99.90;;;;;;5038060;28;20214;-86
2022/04/27 12:28:47;;;;;;;0.90;0.90;;;13.40;99.90;;;;;;5025796;28;20575;-87
2022/04/27 12:31:15;;;;;;;1.30;1.20;;;13.60;99.90;;;;;;5035565;28;20182;-86
2022/04/27 12:33:47;;;;;;;1.57;1.03;;;13.90;99.90;;;;;;5051476;28;20666;-87
2022/04/27 12:39:11;;;;;;;3.77;1.13;;;13.70;99.90;;;;;;5026080;28;20256;-86
2022/04/27 12:41:42;;;;;;;5.07;0.67;;;13.70;99.90;;;;;;5036993;28;20220;-86
2022/04/27 12:44:18;;;;;;;1.33;0.77;;;14.10;99.90;;;;;;5035563;28;20268;-86
2022/04/27 12:47:00;;;;;;;2.63;0.80;;;14.40;99.90;;;;;;5034645;28;20682;-86
2022/04/27 12:49:27;;;;;;;1.37;1.00;;;13.90;99.90;;;;;;5034404;28;20227;-85
2022/04/27 12:51:55;;;;;;;5.17;2.50;;;14.30;99.90;;;;;;5038070;28;20248;-87
2022/04/27 12:54:34;;;;;;;4.23;2.90;;;13.90;99.90;;;;;;5052252;28;20227;-87
2022/04/27 12:57:00;;;;;;;6.73;2.83;;;13.80;99.90;;;;;;5035750;28;20237;-86
2022/04/27 12:59:25;;;;;;;18.97;6.63;;;13.80;99.90;;;;;;5026402;28;20222;-86
2022/04/27 13:02:04;;;;;;;26.07;7.80;;;13.40;99.90;;;;;;5035811;28;20226;-87
2022/04/27 13:04:31;;;;;;;7.63;4.53;;;13.30;99.90;;;;;;5035839;28;20272;-86
2022/04/27 13:06:58;;;;;;;10.47;6.23;;;14.00;99.90;;;;;;5037186;28;20199;-88
2022/04/27 13:12:08;;;;;;;21.73;9.13;;;13.70;99.90;;;;;;5035878;28;20745;-85
2022/04/27 13:14:34;;;;;;;8.83;3.73;;;13.50;99.90;;;;;;5052995;28;20219;-87
2022/04/27 13:16:59;;;;;;;31.13;13.37;;;13.80;99.90;;;;;;5052741;28;20222;-85
2022/04/27 13:19:25;;;;;;;80.13;31.43;;;13.90;99.90;;;;;;5026151;28;20186;-87
2022/04/27 13:21:51;;;;;;;25.27;11.33;;;13.60;99.90;;;;;;5038214;28;20626;-86
2022/04/27 13:24:17;;;;;;;13.60;4.83;;;13.40;99.90;;;;;;5024460;28;20221;-87
2022/04/27 13:26:43;;;;;;;8.40;4.17;;;13.30;99.90;;;;;;5024668;28;20209;-83